Observation data for Northwest San Angelo on 05/26/2019      Previous  Date  Next       Current Mesonet Observations  Soil Data  Daily Summary Page  Observations in Plain Language
KASU 260500Z 13013KT 24/17 A2995 RMK A01 T02440171  RH  067%=      5-min Rain = 0
KASU 260505Z 13014G19KT 24/17 A2995 RMK A01 T02440171  RH  067%=      5-min Rain = 0
KASU 260510Z 13013KT 24/17 A2995 RMK A01 T02430171  RH  068%=      5-min Rain = 0
KASU 260515Z 13013G18KT 24/17 A2995 RMK A01 T02420172  RH  068%=      5-min Rain = 0
KASU 260520Z 13012KT 24/17 A2995 RMK A01 T02390172  RH  069%=      5-min Rain = 0
KASU 260525Z 13013KT 24/17 A2995 RMK A01 T02380172  RH  070%=      5-min Rain = 0
KASU 260530Z 13013KT 24/17 A2995 RMK A01 T02390171  RH  069%=      5-min Rain = 0
KASU 260535Z 13011KT 24/17 A2995 RMK A01 T02370172  RH  070%=      5-min Rain = 0
KASU 260540Z 13011G16KT 24/17 A2995 RMK A01 T02350172  RH  071%=      5-min Rain = 0
KASU 260545Z 13012KT 24/17 A2995 RMK A01 T02350173  RH  071%=      5-min Rain = 0
KASU 260550Z 14013KT 24/17 A2995 RMK A01 T02370173  RH  071%=      5-min Rain = 0
KASU 260555Z 14012G17KT 24/17 A2995 RMK A01 T02390174  RH  071%=      5-min Rain = 0
KASU 260600Z 14013KT 24/17 A2995 RMK A01 T02390174  RH  070%=      5-min Rain = 0
KASU 260605Z 14012G18KT 24/17 A2996 RMK A01 T02390174  RH  070%=      5-min Rain = 0
KASU 260610Z 14013G18KT 24/17 A2996 RMK A01 T02390173  RH  070%=      5-min Rain = 0
KASU 260615Z 13013G21KT 24/17 A2995 RMK A01 T02380173  RH  070%=      5-min Rain = 0
KASU 260620Z 13013KT 24/17 A2995 RMK A01 T02380173  RH  070%=      5-min Rain = 0
KASU 260625Z 14012G17KT 24/17 A2995 RMK A01 T02370172  RH  071%=      5-min Rain = 0
KASU 260630Z 13011KT 24/17 A2995 RMK A01 T02350172  RH  071%=      5-min Rain = 0
KASU 260635Z 13011G17KT 24/17 A2995 RMK A01 T02350172  RH  071%=      5-min Rain = 0
KASU 260640Z 13012KT 24/17 A2995 RMK A01 T02350172  RH  071%=      5-min Rain = 0
KASU 260645Z 14011KT 23/17 A2995 RMK A01 T02340172  RH  072%=      5-min Rain = 0
KASU 260650Z 13010KT 23/17 A2995 RMK A01 T02330172  RH  072%=      5-min Rain = 0
KASU 260655Z 14009G14KT 23/17 A2995 RMK A01 T02310172  RH  073%=      5-min Rain = 0
KASU 260700Z 13009KT 23/17 A2995 RMK A01 T02310172  RH  073%=      5-min Rain = 0
KASU 260705Z 13009KT 23/17 A2995 RMK A01 T02300172  RH  074%=      5-min Rain = 0
KASU 260710Z 14009KT 23/17 A2995 RMK A01 T02290172  RH  074%=      5-min Rain = 0
KASU 260715Z 14008KT 23/17 A2995 RMK A01 T02280172  RH  074%=      5-min Rain = 0
KASU 260720Z 14008KT 23/17 A2995 RMK A01 T02260171  RH  075%=      5-min Rain = 0
KASU 260725Z 15010KT 23/17 A2994 RMK A01 T02260171  RH  075%=      5-min Rain = 0
KASU 260730Z 14010KT 23/17 A2995 RMK A01 T02260171  RH  075%=      5-min Rain = 0
KASU 260735Z 14009KT 23/17 A2995 RMK A01 T02250171  RH  075%=      5-min Rain = 0
KASU 260740Z 14008KT 22/17 A2995 RMK A01 T02240170  RH  075%=      5-min Rain = 0
KASU 260745Z 14008G13KT 22/17 A2994 RMK A01 T02230170  RH  076%=      5-min Rain = 0
KASU 260750Z 15009KT 22/17 A2994 RMK A01 T02230170  RH  076%=      5-min Rain = 0
KASU 260755Z 14010G15KT 22/17 A2994 RMK A01 T02230170  RH  075%=      5-min Rain = 0
KASU 260800Z 14008KT 22/17 A2994 RMK A01 T02220169  RH  076%=      5-min Rain = 0
KASU 260805Z 14009KT 22/17 A2994 RMK A01 T02210169  RH  076%=      5-min Rain = 0
KASU 260810Z 14009KT 22/17 A2994 RMK A01 T02210169  RH  076%=      5-min Rain = 0
KASU 260815Z 13008KT 22/17 A2994 RMK A01 T02200168  RH  076%=      5-min Rain = 0
KASU 260820Z 13008KT 22/17 A2994 RMK A01 T02190168  RH  076%=      5-min Rain = 0
KASU 260825Z 14008KT 22/17 A2994 RMK A01 T02180167  RH  076%=      5-min Rain = 0
KASU 260830Z 13007KT 22/17 A2995 RMK A01 T02170167  RH  077%=      5-min Rain = 0
KASU 260835Z 13007KT 22/17 A2995 RMK A01 T02160167  RH  077%=      5-min Rain = 0
KASU 260840Z 14007KT 22/17 A2995 RMK A01 T02150167  RH  078%=      5-min Rain = 0
KASU 260845Z 13008KT 22/17 A2995 RMK A01 T02150167  RH  077%=      5-min Rain = 0
KASU 260850Z 13008KT 22/17 A2995 RMK A01 T02150166  RH  077%=      5-min Rain = 0
KASU 260855Z 13007KT 21/17 A2995 RMK A01 T02140165  RH  078%=      5-min Rain = 0
KASU 260900Z 13008KT 21/17 A2995 RMK A01 T02120165  RH  078%=      5-min Rain = 0
KASU 260905Z 13010KT 21/17 A2995 RMK A01 T02140165  RH  077%=      5-min Rain = 0
KASU 260910Z 14007KT 21/16 A2996 RMK A01 T02140164  RH  077%=      5-min Rain = 0
KASU 260915Z 13007KT 21/16 A2996 RMK A01 T02120164  RH  077%=      5-min Rain = 0
KASU 260920Z 13008KT 21/16 A2996 RMK A01 T02100163  RH  078%=      5-min Rain = 0
KASU 260925Z 13009KT 21/16 A2996 RMK A01 T02110163  RH  078%=      5-min Rain = 0
KASU 260930Z 13008KT 21/16 A2996 RMK A01 T02110162  RH  078%=      5-min Rain = 0
KASU 260935Z 13008KT 21/16 A2996 RMK A01 T02100162  RH  078%=      5-min Rain = 0
KASU 260940Z 13009KT 21/16 A2996 RMK A01 T02090162  RH  078%=      5-min Rain = 0
KASU 260945Z 13008KT 21/16 A2996 RMK A01 T02090161  RH  078%=      5-min Rain = 0
KASU 260950Z 13008KT 21/16 A2996 RMK A01 T02070161  RH  078%=      5-min Rain = 0
KASU 260955Z 14008KT 21/16 A2996 RMK A01 T02070161  RH  079%=      5-min Rain = 0
KASU 261000Z 14008KT 21/16 A2996 RMK A01 T02060161  RH  079%=      5-min Rain = 0
KASU 261005Z 14007KT 21/16 A2996 RMK A01 T02070161  RH  079%=      5-min Rain = 0
KASU 261010Z 14008KT 21/16 A2997 RMK A01 T02080162  RH  078%=      5-min Rain = 0
KASU 261015Z 14008KT 21/16 A2997 RMK A01 T02090162  RH  078%=      5-min Rain = 0
KASU 261020Z 15009KT 21/16 A2997 RMK A01 T02110162  RH  078%=      5-min Rain = 0
KASU 261025Z 15009G14KT 21/16 A2997 RMK A01 T02120162  RH  077%=      5-min Rain = 0
KASU 261030Z 15008G13KT 21/16 A2997 RMK A01 T02120162  RH  077%=      5-min Rain = 0
KASU 261035Z 14009G14KT 21/16 A2997 RMK A01 T02120162  RH  077%=      5-min Rain = 0
KASU 261040Z 14007KT 21/16 A2997 RMK A01 T02110161  RH  077%=      5-min Rain = 0
KASU 261045Z 14009KT 21/16 A2997 RMK A01 T02100161  RH  077%=      5-min Rain = 0
KASU 261050Z 14009KT 21/16 A2997 RMK A01 T02090160  RH  077%=      5-min Rain = 0
KASU 261055Z 13008KT 21/16 A2997 RMK A01 T02090160  RH  077%=      5-min Rain = 0
KASU 261100Z 13007KT 21/16 A2997 RMK A01 T02080160  RH  077%=      5-min Rain = 0
KASU 261105Z 13007KT 21/16 A2997 RMK A01 T02070160  RH  078%=      5-min Rain = 0
KASU 261110Z 13007KT 21/16 A2997 RMK A01 T02060160  RH  078%=      5-min Rain = 0
KASU 261115Z 13008KT 21/16 A2998 RMK A01 T02050160  RH  079%=      5-min Rain = 0
KASU 261120Z 13008KT 20/16 A2998 RMK A01 T02040160  RH  079%=      5-min Rain = 0
KASU 261125Z 13008KT 20/16 A2998 RMK A01 T02040160  RH  080%=      5-min Rain = 0
KASU 261130Z 13008KT 20/16 A2998 RMK A01 T02030160  RH  080%=      5-min Rain = 0
KASU 261135Z 13007KT 20/16 A2998 RMK A01 T02020160  RH  080%=      5-min Rain = 0
KASU 261140Z 13008KT 20/16 A2999 RMK A01 T02010159  RH  081%=      5-min Rain = 0
KASU 261145Z 13007KT 20/16 A2999 RMK A01 T02000160  RH  081%=      5-min Rain = 0
KASU 261150Z 13007KT 20/16 A2999 RMK A01 T01990160  RH  082%=      5-min Rain = 0
KASU 261155Z 12007KT 20/16 A2999 RMK A01 T01990160  RH  082%=      5-min Rain = 0
KASU 261200Z 13007KT 20/16 A2999 RMK A01 T01990160  RH  082%=      5-min Rain = 0
KASU 261205Z 13008KT 20/16 A2999 RMK A01 T02010162  RH  082%=      5-min Rain = 0
KASU 261210Z 12008KT 20/16 A2999 RMK A01 T02020162  RH  082%=      5-min Rain = 0
KASU 261215Z 12008KT 20/16 A30 RMK A01 T02030162  RH  081%=      5-min Rain = 0
KASU 261220Z 12008KT 20/16 A30 RMK A01 T02040162  RH  080%=      5-min Rain = 0
KASU 261225Z 12008KT 21/16 A30 RMK A01 T02060162  RH  080%=      5-min Rain = 0
KASU 261230Z 12007KT 21/16 A30 RMK A01 T02060162  RH  079%=      5-min Rain = 0
KASU 261235Z 13008KT 21/16 A3001 RMK A01 T02070162  RH  079%=      5-min Rain = 0
KASU 261240Z 13008KT 21/16 A3001 RMK A01 T02070162  RH  079%=      5-min Rain = 0
KASU 261245Z 13007KT 21/16 A3001 RMK A01 T02080163  RH  079%=      5-min Rain = 0
KASU 261250Z 12008KT 21/16 A3001 RMK A01 T02080163  RH  079%=      5-min Rain = 0
KASU 261255Z 12007KT 21/16 A3001 RMK A01 T02090163  RH  079%=      5-min Rain = 0
KASU 261300Z 12007KT 21/16 A3001 RMK A01 T02090162  RH  078%=      5-min Rain = 0
KASU 261305Z 12007KT 21/16 A3001 RMK A01 T02100163  RH  078%=      5-min Rain = 0
KASU 261310Z 12006KT 21/16 A3001 RMK A01 T02100163  RH  078%=      5-min Rain = 0
KASU 261315Z 12006KT 21/16 A3001 RMK A01 T02110164  RH  078%=      5-min Rain = 0
KASU 261320Z 12006KT 21/16 A3002 RMK A01 T02120164  RH  078%=      5-min Rain = 0
KASU 261325Z 12006KT 21/16 A3002 RMK A01 T02120164  RH  078%=      5-min Rain = 0
KASU 261330Z 12006KT 21/16 A3003 RMK A01 T02120164  RH  078%=      5-min Rain = 0
KASU 261335Z 12005KT 21/16 A3003 RMK A01 T02120164  RH  078%=      5-min Rain = 0
KASU 261340Z 12004KT 21/17 A3003 RMK A01 T02120165  RH  078%=      5-min Rain = 0
KASU 261345Z 12004KT 21/17 A3004 RMK A01 T02120165  RH  078%=      5-min Rain = 0
KASU 261350Z 13003KT 21/17 A3004 RMK A01 T02130166  RH  078%=      5-min Rain = 0
KASU 261355Z 11003KT 21/17 A3004 RMK A01 T02140166  RH  078%=      5-min Rain = 0
KASU 261400Z 11003KT 21/17 A3004 RMK A01 T02140167  RH  078%=      5-min Rain = 0
KASU 261405Z 11003KT 21/17 A3004 RMK A01 T02140167  RH  079%=      5-min Rain = 0
KASU 261410Z 11003KT 21/17 A3004 RMK A01 T02140168  RH  079%=      5-min Rain = 0
KASU 261415Z 12005G12KT 22/17 A3004 RMK A01 T02150168  RH  078%=      5-min Rain = 0
KASU 261420Z 11004KT 22/17 A3004 RMK A01 T02160169  RH  078%=      5-min Rain = 0
KASU 261425Z 12005KT 22/17 A3004 RMK A01 T02170169  RH  078%=      5-min Rain = 0
KASU 261430Z 12004KT 22/17 A3004 RMK A01 T02180170  RH  078%=      5-min Rain = 0
KASU 261435Z 12004KT 22/17 A3004 RMK A01 T02190170  RH  078%=      5-min Rain = 0
KASU 261440Z 12004KT 22/17 A3004 RMK A01 T02190170  RH  077%=      5-min Rain = 0
KASU 261445Z 12004KT 22/17 A3004 RMK A01 T02200170  RH  077%=      5-min Rain = 0
KASU 261450Z 12005KT 22/17 A3004 RMK A01 T02210171  RH  077%=      5-min Rain = 0
KASU 261455Z 12005KT 22/17 A3004 RMK A01 T02220171  RH  077%=      5-min Rain = 0
KASU 261500Z 13006KT 22/17 A3004 RMK A01 T02230172  RH  076%=      5-min Rain = 0
KASU 261505Z 13006KT 23/17 A3004 RMK A01 T02250172  RH  076%=      5-min Rain = 0
KASU 261510Z 13007KT 23/17 A3004 RMK A01 T02260172  RH  075%=      5-min Rain = 0
KASU 261515Z 14006KT 23/17 A3004 RMK A01 T02270173  RH  075%=      5-min Rain = 0
KASU 261520Z 14007KT 23/17 A3003 RMK A01 T02280173  RH  075%=      5-min Rain = 0
KASU 261525Z 14009KT 23/17 A3003 RMK A01 T02300173  RH  074%=      5-min Rain = 0
KASU 261530Z 15009KT 23/17 A3003 RMK A01 T02320172  RH  073%=      5-min Rain = 0
KASU 261535Z 15009G14KT 23/17 A3003 RMK A01 T02340173  RH  073%=      5-min Rain = 0
KASU 261540Z 15010KT 24/17 A3002 RMK A01 T02360173  RH  071%=      5-min Rain = 0
KASU 261545Z 15010KT 24/17 A3002 RMK A01 T02370173  RH  071%=      5-min Rain = 0
KASU 261550Z 15009KT 24/18 A3002 RMK A01 T02390175  RH  071%=      5-min Rain = 0
KASU 261555Z 15011G19KT 24/18 A3002 RMK A01 T02400175  RH  071%=      5-min Rain = 0
KASU 261600Z 15012G18KT 24/18 A3002 RMK A01 T02420175  RH  070%=      5-min Rain = 0
KASU 261605Z 15014G20KT 24/18 A3002 RMK A01 T02420175  RH  069%=      5-min Rain = 0
KASU 261610Z 15013G19KT 24/17 A3002 RMK A01 T02410174  RH  070%=      5-min Rain = 0
KASU 261615Z 16011G16KT 24/18 A3002 RMK A01 T02400175  RH  070%=      5-min Rain = 0
KASU 261620Z 15012G21KT 24/18 A3002 RMK A01 T02400177  RH  071%=      5-min Rain = 0
KASU 261625Z 16016G23KT 24/18 A3003 RMK A01 T02380176  RH  072%=      5-min Rain = 0
KASU 261630Z 16013G18KT 24/18 A3002 RMK A01 T02380177  RH  072%=      5-min Rain = 0
KASU 261635Z 16013G18KT 24/18 A3002 RMK A01 T02390178  RH  072%=      5-min Rain = 0
KASU 261640Z 16013KT 24/18 A3002 RMK A01 T02410179  RH  072%=      5-min Rain = 0
KASU 261645Z 16011KT 25/18 A3002 RMK A01 T02450182  RH  072%=      5-min Rain = 0
KASU 261650Z 16013G18KT 25/18 A3002 RMK A01 T02450180  RH  071%=      5-min Rain = 0
KASU 261655Z 16012G17KT 24/18 A3002 RMK A01 T02430180  RH  072%=      5-min Rain = 0
KASU 261700Z 16012G17KT 24/18 A3002 RMK A01 T02440181  RH  072%=      5-min Rain = 0
KASU 261705Z 15012G17KT 25/18 A3002 RMK A01 T02470183  RH  071%=      5-min Rain = 0
KASU 261710Z 15011G16KT 25/19 A3002 RMK A01 T02530186  RH  070%=      5-min Rain = 0
KASU 261715Z 15013KT 25/18 A3002 RMK A01 T02510184  RH  070%=      5-min Rain = 0
KASU 261720Z 15014G19KT 25/18 A3002 RMK A01 T02510184  RH  070%=      5-min Rain = 0
KASU 261725Z 15014G19KT 25/18 A3002 RMK A01 T02500183  RH  070%=      5-min Rain = 0
KASU 261730Z 14014G19KT 25/18 A3002 RMK A01 T02470183  RH  071%=      5-min Rain = 0
KASU 261735Z 14013G18KT 25/19 A3002 RMK A01 T02490185  RH  071%=      5-min Rain = 0
KASU 261740Z 15012G17KT 26/19 A3001 RMK A01 T02560188  RH  070%=      5-min Rain = 0
KASU 261745Z 14014G19KT 25/19 A3001 RMK A01 T02520185  RH  070%=      5-min Rain = 0
KASU 261750Z 14013KT 25/19 A3001 RMK A01 T02500185  RH  071%=      5-min Rain = 0
KASU 261755Z 14011KT 25/19 A3001 RMK A01 T02510187  RH  072%=      5-min Rain = 0
KASU 261800Z 15012KT 25/19 A3001 RMK A01 T02540187  RH  070%=      5-min Rain = 0
KASU 261805Z 14014KT 25/19 A3001 RMK A01 T02530186  RH  070%=      5-min Rain = 0
KASU 261810Z 15014G19KT 26/19 A3001 RMK A01 T02550186  RH  069%=      5-min Rain = 0
KASU 261815Z 15013KT 26/19 A3001 RMK A01 T02580187  RH  069%=      5-min Rain = 0
KASU 261820Z 15016G21KT 26/19 A30 RMK A01 T02600187  RH  067%=      5-min Rain = 0
KASU 261825Z 14014KT 26/19 A30 RMK A01 T02620189  RH  068%=      5-min Rain = 0
KASU 261830Z 13014G19KT 26/19 A30 RMK A01 T02570186  RH  069%=      5-min Rain = 0
KASU 261835Z 14012KT 25/19 A3001 RMK A01 T02530186  RH  070%=      5-min Rain = 0
KASU 261840Z 15013G18KT 26/19 A3001 RMK A01 T02550187  RH  070%=      5-min Rain = 0
KASU 261845Z 14010KT 26/19 A30 RMK A01 T02590190  RH  069%=      5-min Rain = 0
KASU 261850Z 15013G18KT 26/19 A30 RMK A01 T02630189  RH  067%=      5-min Rain = 0
KASU 261855Z 14014G19KT 27/19 A30 RMK A01 T02660188  RH  066%=      5-min Rain = 0
KASU 261900Z 15014G19KT 27/19 A30 RMK A01 T02690187  RH  064%=      5-min Rain = 0
KASU 261905Z 15015G22KT 27/19 A30 RMK A01 T02730186  RH  062%=      5-min Rain = 0
KASU 261910Z 16014G20KT 27/19 A30 RMK A01 T02720185  RH  062%=      5-min Rain = 0
KASU 261915Z 16013G19KT 27/18 A30 RMK A01 T02740184  RH  061%=      5-min Rain = 0
KASU 261920Z 16012G17KT 28/19 A30 RMK A01 T02780185  RH  060%=      5-min Rain = 0
KASU 261925Z 15013G19KT 28/19 A2999 RMK A01 T02790186  RH  060%=      5-min Rain = 0
KASU 261930Z 15013G19KT 27/18 A2999 RMK A01 T02710182  RH  061%=      5-min Rain = 0
KASU 261935Z 15012G18KT 27/18 A2999 RMK A01 T02720183  RH  061%=      5-min Rain = 0
KASU 261940Z 15012KT 27/18 A2999 RMK A01 T02730181  RH  060%=      5-min Rain = 0
KASU 261945Z 15010G16KT 28/19 A2999 RMK A01 T02780187  RH  061%=      5-min Rain = 0
KASU 261950Z 16009G14KT 29/19 A2999 RMK A01 T02850188  RH  059%=      5-min Rain = 0
KASU 261955Z 16012G18KT 28/18 A2999 RMK A01 T02840181  RH  057%=      5-min Rain = 0
KASU 262000Z 16014KT 28/18 A2999 RMK A01 T02840177  RH  055%=      5-min Rain = 0
KASU 262005Z 15012G19KT 28/18 A2999 RMK A01 T02830179  RH  056%=      5-min Rain = 0
KASU 262010Z 15013KT 29/18 A2998 RMK A01 T02850178  RH  055%=      5-min Rain = 0
KASU 262015Z 15015G24KT 29/18 A2998 RMK A01 T02890177  RH  053%=      5-min Rain = 0
KASU 262020Z 15015G20KT 29/18 A2998 RMK A01 T02930178  RH  053%=      5-min Rain = 0
KASU 262025Z 15015G21KT 29/17 A2998 RMK A01 T02870173  RH  053%=      5-min Rain = 0
KASU 262030Z 15013KT 29/18 A2998 RMK A01 T02860176  RH  054%=      5-min Rain = 0
KASU 262035Z 15012G19KT 29/18 A2998 RMK A01 T02900178  RH  053%=      5-min Rain = 0
KASU 262040Z 15014G19KT 29/18 A2998 RMK A01 T02910176  RH  052%=      5-min Rain = 0
KASU 262045Z 15015G22KT 29/17 A2997 RMK A01 T02870172  RH  052%=      5-min Rain = 0
KASU 262050Z 16013KT 28/17 A2997 RMK A01 T02840170  RH  053%=      5-min Rain = 0
KASU 262055Z 16015KT 28/17 A2998 RMK A01 T02810167  RH  052%=      5-min Rain = 0
KASU 262100Z 16012KT 28/17 A2997 RMK A01 T02810170  RH  053%=      5-min Rain = 0
KASU 262105Z 16010G17KT 28/18 A2997 RMK A01 T02840175  RH  054%=      5-min Rain = 0
KASU 262110Z 16013G21KT 29/17 A2997 RMK A01 T02880171  RH  052%=      5-min Rain = 0
KASU 262115Z 16014G22KT 29/17 A2997 RMK A01 T02920171  RH  051%=      5-min Rain = 0
KASU 262120Z 15015G20KT 29/17 A2996 RMK A01 T02930171  RH  050%=      5-min Rain = 0
KASU 262125Z 15013G19KT 29/17 A2996 RMK A01 T02930172  RH  051%=      5-min Rain = 0
KASU 262130Z 15014G20KT 29/17 A2996 RMK A01 T02930170  RH  050%=      5-min Rain = 0
KASU 262135Z 15015G21KT 29/17 A2996 RMK A01 T02930169  RH  049%=      5-min Rain = 0
KASU 262140Z 15014KT 29/17 A2996 RMK A01 T02920168  RH  050%=      5-min Rain = 0
KASU 262145Z 15015G21KT 29/17 A2996 RMK A01 T02920167  RH  049%=      5-min Rain = 0
KASU 262150Z 16012G19KT 29/17 A2996 RMK A01 T02910166  RH  049%=      5-min Rain = 0
KASU 262155Z 17013KT 29/17 A2997 RMK A01 T02890165  RH  049%=      5-min Rain = 0
KASU 262200Z 17012G17KT 29/17 A2996 RMK A01 T02870167  RH  051%=      5-min Rain = 0
KASU 262205Z 17011G16KT 29/17 A2996 RMK A01 T02880168  RH  051%=      5-min Rain = 0
KASU 262210Z 17009KT 29/17 A2996 RMK A01 T02860172  RH  052%=      5-min Rain = 0
KASU 262215Z 16011G16KT 29/17 A2996 RMK A01 T02850169  RH  052%=      5-min Rain = 0
KASU 262220Z 15012KT 29/17 A2995 RMK A01 T02850170  RH  052%=      5-min Rain = 0
KASU 262225Z 16009G15KT 29/17 A2995 RMK A01 T02850170  RH  052%=      5-min Rain = 0
KASU 262230Z 16008KT 28/17 A2995 RMK A01 T02840173  RH  054%=      5-min Rain = 0
KASU 262235Z 16009KT 28/17 A2994 RMK A01 T02830174  RH  054%=      5-min Rain = 0
KASU 262240Z 15010KT 28/17 A2994 RMK A01 T02840174  RH  054%=      5-min Rain = 0
KASU 262245Z 15011KT 28/17 A2994 RMK A01 T02840171  RH  053%=      5-min Rain = 0
KASU 262250Z 15011KT 29/17 A2994 RMK A01 T02850171  RH  053%=      5-min Rain = 0
KASU 262255Z 15010G15KT 29/17 A2994 RMK A01 T02850173  RH  053%=      5-min Rain = 0
KASU 262300Z 15009KT 29/17 A2994 RMK A01 T02860174  RH  053%=      5-min Rain = 0
KASU 262305Z 15010KT 29/17 A2994 RMK A01 T02850173  RH  053%=      5-min Rain = 0
KASU 262310Z 16011KT 28/17 A2994 RMK A01 T02840171  RH  053%=      5-min Rain = 0
KASU 262315Z 15010KT 28/17 A2993 RMK A01 T02830173  RH  054%=      5-min Rain = 0
KASU 262320Z 15009KT 28/17 A2993 RMK A01 T02810173  RH  055%=      5-min Rain = 0
KASU 262325Z 15010KT 28/17 A2993 RMK A01 T02790173  RH  055%=      5-min Rain = 0
KASU 262330Z 15010KT 28/17 A2992 RMK A01 T02780172  RH  055%=      5-min Rain = 0
KASU 262335Z 15010KT 28/17 A2992 RMK A01 T02770173  RH  056%=      5-min Rain = 0
KASU 262340Z 14009G14KT 28/17 A2992 RMK A01 T02770173  RH  056%=      5-min Rain = 0
KASU 262345Z 14009KT 28/17 A2991 RMK A01 T02760173  RH  056%=      5-min Rain = 0
KASU 262350Z 14009KT 28/17 A299 RMK A01 T02760172  RH  056%=      5-min Rain = 0
KASU 262355Z 13009KT 28/17 A299 RMK A01 T02750173  RH  057%=      5-min Rain = 0
KASU 270000Z 14010KT 28/17 A2991 RMK A01 T02750172  RH  056%=      5-min Rain = 0
KASU 270005Z 14010KT 28/17 A2991 RMK A01 T02770170  RH  055%=      5-min Rain = 0
KASU 270010Z 14011G18KT 28/17 A2991 RMK A01 T02770170  RH  055%=      5-min Rain = 0
KASU 270015Z 14012KT 28/17 A299 RMK A01 T02780168  RH  054%=      5-min Rain = 0
KASU 270020Z 13011KT 28/17 A299 RMK A01 T02770169  RH  054%=      5-min Rain = 0
KASU 270025Z 13011KT 28/17 A299 RMK A01 T02760169  RH  055%=      5-min Rain = 0
KASU 270030Z 14011KT 28/17 A299 RMK A01 T02760169  RH  055%=      5-min Rain = 0
KASU 270035Z 14011KT 28/17 A299 RMK A01 T02760169  RH  055%=      5-min Rain = 0
KASU 270040Z 14011G16KT 28/17 A299 RMK A01 T02760168  RH  054%=      5-min Rain = 0
KASU 270045Z 14011KT 28/17 A2991 RMK A01 T02750169  RH  055%=      5-min Rain = 0
KASU 270050Z 14009KT 27/17 A299 RMK A01 T02730170  RH  056%=      5-min Rain = 0
KASU 270055Z 14010KT 27/17 A299 RMK A01 T02730170  RH  056%=      5-min Rain = 0
KASU 270100Z 14010KT 27/17 A299 RMK A01 T02720170  RH  056%=      5-min Rain = 0
KASU 270105Z 14010KT 27/17 A2989 RMK A01 T02720170  RH  056%=      5-min Rain = 0
KASU 270110Z 13010KT 27/17 A2989 RMK A01 T02720170  RH  056%=      5-min Rain = 0
KASU 270115Z 13011KT 27/17 A2989 RMK A01 T02700170  RH  057%=      5-min Rain = 0
KASU 270120Z 13011KT 27/17 A2989 RMK A01 T02700170  RH  057%=      5-min Rain = 0
KASU 270125Z 13011KT 27/17 A2989 RMK A01 T02690170  RH  057%=      5-min Rain = 0
KASU 270130Z 13013G18KT 27/17 A2988 RMK A01 T02690170  RH  057%=      5-min Rain = 0
KASU 270135Z 13013G19KT 27/17 A2988 RMK A01 T02700169  RH  057%=      5-min Rain = 0
KASU 270140Z 14011G16KT 27/17 A2988 RMK A01 T02700169  RH  056%=      5-min Rain = 0
KASU 270145Z 13012G17KT 27/17 A2988 RMK A01 T02690168  RH  057%=      5-min Rain = 0
KASU 270150Z 13012G17KT 27/17 A2987 RMK A01 T02690168  RH  057%=      5-min Rain = 0
KASU 270155Z 13011G17KT 27/17 A2987 RMK A01 T02670168  RH  057%=      5-min Rain = 0
KASU 270200Z 13010G15KT 27/17 A2988 RMK A01 T02680167  RH  057%=      5-min Rain = 0
KASU 270205Z 13010KT 27/17 A2988 RMK A01 T02660167  RH  057%=      5-min Rain = 0
KASU 270210Z 14009KT 27/17 A2989 RMK A01 T02650168  RH  058%=      5-min Rain = 0
KASU 270215Z 14010KT 26/17 A2989 RMK A01 T02640168  RH  058%=      5-min Rain = 0
KASU 270220Z 14009KT 26/17 A2989 RMK A01 T02630168  RH  059%=      5-min Rain = 0
KASU 270225Z 14010G15KT 26/17 A2988 RMK A01 T02620168  RH  059%=      5-min Rain = 0
KASU 270230Z 14009KT 26/17 A2989 RMK A01 T02610169  RH  060%=      5-min Rain = 0
KASU 270235Z 14010KT 26/17 A2989 RMK A01 T02610170  RH  060%=      5-min Rain = 0
KASU 270240Z 14009KT 26/17 A2989 RMK A01 T02610170  RH  060%=      5-min Rain = 0
KASU 270245Z 14009KT 26/17 A2989 RMK A01 T02610170  RH  060%=      5-min Rain = 0
KASU 270250Z 14009KT 26/17 A2989 RMK A01 T02590170  RH  061%=      5-min Rain = 0
KASU 270255Z 15010KT 26/17 A2989 RMK A01 T02580171  RH  062%=      5-min Rain = 0
KASU 270300Z 14010KT 26/17 A2989 RMK A01 T02570172  RH  062%=      5-min Rain = 0
KASU 270305Z 14009KT 26/17 A2989 RMK A01 T02570172  RH  062%=      5-min Rain = 0
KASU 270310Z 14010G15KT 26/17 A2989 RMK A01 T02570172  RH  062%=      5-min Rain = 0
KASU 270315Z 14010KT 26/17 A2989 RMK A01 T02570173  RH  063%=      5-min Rain = 0
KASU 270320Z 14011KT 26/17 A2989 RMK A01 T02550173  RH  064%=      5-min Rain = 0
KASU 270325Z 14013KT 26/17 A2988 RMK A01 T02560173  RH  063%=      5-min Rain = 0
KASU 270330Z 14011KT 26/17 A2988 RMK A01 T02570173  RH  063%=      5-min Rain = 0
KASU 270335Z 15010G16KT 26/17 A2988 RMK A01 T02550174  RH  064%=      5-min Rain = 0
KASU 270340Z 14011G19KT 26/17 A2988 RMK A01 T02570174  RH  063%=      5-min Rain = 0
KASU 270345Z 14011KT 26/17 A2988 RMK A01 T02560174  RH  064%=      5-min Rain = 0
KASU 270350Z 14009KT 26/17 A2988 RMK A01 T02550174  RH  064%=      5-min Rain = 0
KASU 270355Z 15010KT 25/18 A2989 RMK A01 T02540175  RH  065%=      5-min Rain = 0
KASU 270400Z 15009KT 25/18 A2989 RMK A01 T02530175  RH  066%=      5-min Rain = 0
KASU 270405Z 15009KT 25/18 A299 RMK A01 T02520176  RH  066%=      5-min Rain = 0
KASU 270410Z 15009G14KT 25/18 A299 RMK A01 T02540176  RH  065%=      5-min Rain = 0
KASU 270415Z 15008KT 25/18 A299 RMK A01 T02530176  RH  066%=      5-min Rain = 0
KASU 270420Z 15007KT 25/18 A299 RMK A01 T02510176  RH  067%=      5-min Rain = 0
KASU 270425Z 15009KT 25/18 A299 RMK A01 T02490177  RH  068%=      5-min Rain = 0
KASU 270430Z 15010G16KT 25/18 A299 RMK A01 T02500177  RH  067%=      5-min Rain = 0
KASU 270435Z 14009KT 25/18 A299 RMK A01 T02510177  RH  067%=      5-min Rain = 0
KASU 270440Z 14008KT 25/18 A299 RMK A01 T02490177  RH  068%=      5-min Rain = 0
KASU 270445Z 14008KT 25/18 A299 RMK A01 T02470177  RH  068%=      5-min Rain = 0
KASU 270450Z 14008KT 25/18 A299 RMK A01 T02480177  RH  068%=      5-min Rain = 0
KASU 270455Z 14008KT 25/18 A299 RMK A01 T02470177  RH  068%=      5-min Rain = 0

Page generated in 0.0219 seconds.